sensor_id;sensor_type;location;lat;lon;timestamp;temperature;humidity
22676;DHT22;12521;43.310;21.876;2022-10-23T00:01:44;13.4;96.0
22676;DHT22;12521;43.310;21.876;2022-10-23T00:06:21;13.4;96.0
22676;DHT22;12521;43.310;21.876;2022-10-23T00:10:58;13.6;96.0
22676;DHT22;12521;43.310;21.876;2022-10-23T00:15:35;13.6;96.0
22676;DHT22;12521;43.310;21.876;2022-10-23T00:20:14;13.8;96.0
22676;DHT22;12521;43.310;21.876;2022-10-23T00:24:52;13.8;96.0
22676;DHT22;12521;43.310;21.876;2022-10-23T00:29:29;13.8;96.0
22676;DHT22;12521;43.310;21.876;2022-10-23T00:34:06;13.9;96.0
22676;DHT22;12521;43.310;21.876;2022-10-23T00:38:43;13.9;96.0
22676;DHT22;12521;43.310;21.876;2022-10-23T00:43:24;14.0;96.0
22676;DHT22;12521;43.310;21.876;2022-10-23T00:48:08;14.0;96.0
22676;DHT22;12521;43.310;21.876;2022-10-23T00:52:49;14.1;96.0
22676;DHT22;12521;43.310;21.876;2022-10-23T00:57:40;14.1;96.0
22676;DHT22;12521;43.310;21.876;2022-10-23T01:02:26;14.6;96.0
22676;DHT22;12521;43.310;21.876;2022-10-23T01:07:13;14.6;96.0
22676;DHT22;12521;43.310;21.876;2022-10-23T01:12:34;15.1;96.0
22676;DHT22;12521;43.310;21.876;2022-10-23T01:17:54;15.1;96.0
22676;DHT22;12521;43.310;21.876;2022-10-23T01:23:19;15.3;96.0
22676;DHT22;12521;43.310;21.876;2022-10-23T01:28:57;15.3;96.0
22676;DHT22;12521;43.310;21.876;2022-10-23T01:33:56;15.5;96.0
22676;DHT22;12521;43.310;21.876;2022-10-23T01:38:55;15.5;96.0
22676;DHT22;12521;43.310;21.876;2022-10-23T01:43:53;15.4;96.0
22676;DHT22;12521;43.310;21.876;2022-10-23T01:48:52;15.4;96.0
22676;DHT22;12521;43.310;21.876;2022-10-23T01:53:38;15.4;96.0
22676;DHT22;12521;43.310;21.876;2022-10-23T01:58:31;15.4;96.0
22676;DHT22;12521;43.310;21.876;2022-10-23T02:03:25;15.6;96.0
22676;DHT22;12521;43.310;21.876;2022-10-23T02:08:17;15.6;96.0
22676;DHT22;12521;43.310;21.876;2022-10-23T02:12:57;15.7;96.0
22676;DHT22;12521;43.310;21.876;2022-10-23T02:18:02;15.7;96.0
22676;DHT22;12521;43.310;21.876;2022-10-23T02:23:18;15.6;96.0
22676;DHT22;12521;43.310;21.876;2022-10-23T02:28:15;15.6;96.0
22676;DHT22;12521;43.310;21.876;2022-10-23T02:33:12;15.6;96.0
22676;DHT22;12521;43.310;21.876;2022-10-23T02:37:54;15.6;96.0
22676;DHT22;12521;43.310;21.876;2022-10-23T02:42:42;15.5;96.0
22676;DHT22;12521;43.310;21.876;2022-10-23T02:47:45;15.5;96.0
22676;DHT22;12521;43.310;21.876;2022-10-23T02:52:52;15.4;96.0
22676;DHT22;12521;43.310;21.876;2022-10-23T02:58:01;15.4;96.0
22676;DHT22;12521;43.310;21.876;2022-10-23T03:03:01;15.2;96.0
22676;DHT22;12521;43.310;21.876;2022-10-23T03:07:56;15.2;96.0
22676;DHT22;12521;43.310;21.876;2022-10-23T03:12:37;14.9;96.0
22676;DHT22;12521;43.310;21.876;2022-10-23T03:17:14;14.9;96.0
22676;DHT22;12521;43.310;21.876;2022-10-23T03:21:51;14.8;96.0
22676;DHT22;12521;43.310;21.876;2022-10-23T03:26:29;14.8;96.0
22676;DHT22;12521;43.310;21.876;2022-10-23T03:31:06;14.6;96.0
22676;DHT22;12521;43.310;21.876;2022-10-23T03:35:43;14.6;96.0
22676;DHT22;12521;43.310;21.876;2022-10-23T03:40:22;14.8;96.0
22676;DHT22;12521;43.310;21.876;2022-10-23T03:44:59;14.8;96.0
22676;DHT22;12521;43.310;21.876;2022-10-23T03:49:36;14.8;96.0
22676;DHT22;12521;43.310;21.876;2022-10-23T03:54:14;14.9;96.0
22676;DHT22;12521;43.310;21.876;2022-10-23T03:58:51;14.9;96.0
22676;DHT22;12521;43.310;21.876;2022-10-23T04:03:28;15.0;96.0
22676;DHT22;12521;43.310;21.876;2022-10-23T04:08:05;15.0;96.0
22676;DHT22;12521;43.310;21.876;2022-10-23T04:12:41;15.0;96.0
22676;DHT22;12521;43.310;21.876;2022-10-23T04:17:18;15.0;96.0
22676;DHT22;12521;43.310;21.876;2022-10-23T04:21:54;14.8;96.0
22676;DHT22;12521;43.310;21.876;2022-10-23T04:26:31;14.8;96.0
22676;DHT22;12521;43.310;21.876;2022-10-23T04:31:08;14.7;96.0
22676;DHT22;12521;43.310;21.876;2022-10-23T04:35:44;14.7;96.0
22676;DHT22;12521;43.310;21.876;2022-10-23T04:40:21;14.5;96.0
22676;DHT22;12521;43.310;21.876;2022-10-23T04:44:58;14.5;96.0
22676;DHT22;12521;43.310;21.876;2022-10-23T04:49:34;14.5;96.0
22676;DHT22;12521;43.310;21.876;2022-10-23T04:54:11;14.3;96.0
22676;DHT22;12521;43.310;21.876;2022-10-23T04:58:47;14.3;96.0
22676;DHT22;12521;43.310;21.876;2022-10-23T05:03:24;14.2;96.0
22676;DHT22;12521;43.310;21.876;2022-10-23T05:08:02;14.2;96.0
22676;DHT22;12521;43.310;21.876;2022-10-23T05:12:39;14.1;96.0
22676;DHT22;12521;43.310;21.876;2022-10-23T05:17:18;14.1;96.0
22676;DHT22;12521;43.310;21.876;2022-10-23T05:22:09;14.0;96.0
22676;DHT22;12521;43.310;21.876;2022-10-23T05:26:50;14.0;96.0
22676;DHT22;12521;43.310;21.876;2022-10-23T05:31:28;14.0;96.0
22676;DHT22;12521;43.310;21.876;2022-10-23T05:36:10;14.0;96.0
22676;DHT22;12521;43.310;21.876;2022-10-23T05:40:51;14.0;96.0
22676;DHT22;12521;43.310;21.876;2022-10-23T05:45:29;14.0;96.0
22676;DHT22;12521;43.310;21.876;2022-10-23T05:50:07;14.0;96.0
22676;DHT22;12521;43.310;21.876;2022-10-23T05:54:44;13.9;96.0
22676;DHT22;12521;43.310;21.876;2022-10-23T05:59:21;13.9;96.0
22676;DHT22;12521;43.310;21.876;2022-10-23T06:03:59;14.0;96.0
22676;DHT22;12521;43.310;21.876;2022-10-23T06:08:38;14.0;96.0
22676;DHT22;12521;43.310;21.876;2022-10-23T06:13:15;14.0;96.0
22676;DHT22;12521;43.310;21.876;2022-10-23T06:17:52;14.0;96.0
22676;DHT22;12521;43.310;21.876;2022-10-23T06:22:29;14.2;96.0
22676;DHT22;12521;43.310;21.876;2022-10-23T06:27:06;14.2;96.0
22676;DHT22;12521;43.310;21.876;2022-10-23T06:31:43;14.4;96.0
22676;DHT22;12521;43.310;21.876;2022-10-23T06:36:21;14.4;96.0
22676;DHT22;12521;43.310;21.876;2022-10-23T06:41:02;14.5;96.0
22676;DHT22;12521;43.310;21.876;2022-10-23T06:45:47;14.5;96.0
22676;DHT22;12521;43.310;21.876;2022-10-23T06:50:24;14.5;96.0
22676;DHT22;12521;43.310;21.876;2022-10-23T06:55:04;14.6;96.0
22676;DHT22;12521;43.310;21.876;2022-10-23T06:59:44;14.6;96.0
22676;DHT22;12521;43.310;21.876;2022-10-23T07:04:20;14.6;96.0
22676;DHT22;12521;43.310;21.876;2022-10-23T07:08:58;14.6;96.0
22676;DHT22;12521;43.310;21.876;2022-10-23T07:13:36;14.6;96.0
22676;DHT22;12521;43.310;21.876;2022-10-23T07:18:15;14.6;96.0
22676;DHT22;12521;43.310;21.876;2022-10-23T07:22:53;14.7;96.0
22676;DHT22;12521;43.310;21.876;2022-10-23T07:27:35;14.7;96.0
22676;DHT22;12521;43.310;21.876;2022-10-23T07:32:14;14.8;96.0
22676;DHT22;12521;43.310;21.876;2022-10-23T07:36:50;14.8;96.0
22676;DHT22;12521;43.310;21.876;2022-10-23T07:41:27;15.1;96.0
22676;DHT22;12521;43.310;21.876;2022-10-23T07:46:04;15.1;96.0
22676;DHT22;12521;43.310;21.876;2022-10-23T07:50:41;15.4;96.0
22676;DHT22;12521;43.310;21.876;2022-10-23T07:55:18;15.4;96.0
22676;DHT22;12521;43.310;21.876;2022-10-23T07:59:55;15.4;96.0
22676;DHT22;12521;43.310;21.876;2022-10-23T08:04:31;15.6;96.0
22676;DHT22;12521;43.310;21.876;2022-10-23T08:09:07;15.6;96.0
22676;DHT22;12521;43.310;21.876;2022-10-23T08:13:44;15.9;96.0
22676;DHT22;12521;43.310;21.876;2022-10-23T08:18:21;15.9;96.0
22676;DHT22;12521;43.310;21.876;2022-10-23T08:22:57;16.2;96.0
22676;DHT22;12521;43.310;21.876;2022-10-23T08:27:34;16.2;96.0
22676;DHT22;12521;43.310;21.876;2022-10-23T08:32:11;16.5;96.0
22676;DHT22;12521;43.310;21.876;2022-10-23T08:36:47;16.5;96.0
22676;DHT22;12521;43.310;21.876;2022-10-23T08:41:28;16.7;96.0
22676;DHT22;12521;43.310;21.876;2022-10-23T08:46:24;16.7;96.0
22676;DHT22;12521;43.310;21.876;2022-10-23T08:51:26;16.9;96.0
22676;DHT22;12521;43.310;21.876;2022-10-23T08:56:30;16.9;96.0
22676;DHT22;12521;43.310;21.876;2022-10-23T09:01:33;17.1;96.0
22676;DHT22;12521;43.310;21.876;2022-10-23T09:06:38;17.1;96.0
22676;DHT22;12521;43.310;21.876;2022-10-23T09:12:09;17.3;96.0
22676;DHT22;12521;43.310;21.876;2022-10-23T09:17:07;17.3;96.0
22676;DHT22;12521;43.310;21.876;2022-10-23T09:22:04;17.6;96.0
22676;DHT22;12521;43.310;21.876;2022-10-23T09:26:44;17.6;96.0
22676;DHT22;12521;43.310;21.876;2022-10-23T09:31:25;17.8;96.0
22676;DHT22;12521;43.310;21.876;2022-10-23T09:36:04;17.8;96.0
22676;DHT22;12521;43.310;21.876;2022-10-23T09:40:58;18.0;96.0
22676;DHT22;12521;43.310;21.876;2022-10-23T09:45:56;18.0;96.0
22676;DHT22;12521;43.310;21.876;2022-10-23T09:50:46;18.3;96.0
22676;DHT22;12521;43.310;21.876;2022-10-23T09:55:32;18.3;96.0
22676;DHT22;12521;43.310;21.876;2022-10-23T10:00:17;18.3;96.0
22676;DHT22;12521;43.310;21.876;2022-10-23T10:05:20;18.6;96.0
22676;DHT22;12521;43.310;21.876;2022-10-23T10:10:14;18.6;96.0
22676;DHT22;12521;43.310;21.876;2022-10-23T10:14:57;18.9;96.0
22676;DHT22;12521;43.310;21.876;2022-10-23T10:20:14;18.9;96.0
22676;DHT22;12521;43.310;21.876;2022-10-23T10:25:45;19.2;96.0
22676;DHT22;12521;43.310;21.876;2022-10-23T10:31:08;19.4;96.0
22676;DHT22;12521;43.310;21.876;2022-10-23T10:36:32;19.4;96.0
22676;DHT22;12521;43.310;21.876;2022-10-23T10:41:52;19.6;96.0
22676;DHT22;12521;43.310;21.876;2022-10-23T10:47:13;19.6;96.0
22676;DHT22;12521;43.310;21.876;2022-10-23T10:52:09;19.9;96.0
22676;DHT22;12521;43.310;21.876;2022-10-23T10:57:25;19.9;96.0
22676;DHT22;12521;43.310;21.876;2022-10-23T11:02:24;20.1;96.0
22676;DHT22;12521;43.310;21.876;2022-10-23T11:07:23;20.1;96.0
22676;DHT22;12521;43.310;21.876;2022-10-23T11:12:24;20.3;96.0
22676;DHT22;12521;43.310;21.876;2022-10-23T11:17:08;20.3;96.0
22676;DHT22;12521;43.310;21.876;2022-10-23T11:22:19;20.5;96.0
22676;DHT22;12521;43.310;21.876;2022-10-23T11:27:40;20.5;96.0
22676;DHT22;12521;43.310;21.876;2022-10-23T11:35:41;20.6;96.0
22676;DHT22;12521;43.310;21.876;2022-10-23T11:40:53;20.6;96.0
22676;DHT22;12521;43.310;21.876;2022-10-23T11:45:56;20.6;96.0
22676;DHT22;12521;43.310;21.876;2022-10-23T12:05:31;21.1;96.0
22676;DHT22;12521;43.310;21.876;2022-10-23T12:10:31;21.1;96.0
22676;DHT22;12521;43.310;21.876;2022-10-23T12:15:23;21.1;96.0
22676;DHT22;12521;43.310;21.876;2022-10-23T12:20:34;21.1;96.0
22676;DHT22;12521;43.310;21.876;2022-10-23T12:25:49;21.2;96.0
22676;DHT22;12521;43.310;21.876;2022-10-23T12:31:25;21.4;96.0
22676;DHT22;12521;43.310;21.876;2022-10-23T12:37:03;21.4;96.0
22676;DHT22;12521;43.310;21.876;2022-10-23T12:42:27;21.5;96.0
22676;DHT22;12521;43.310;21.876;2022-10-23T12:47:12;21.5;96.0
22676;DHT22;12521;43.310;21.876;2022-10-23T12:52:00;21.7;96.0
22676;DHT22;12521;43.310;21.876;2022-10-23T12:56:40;21.7;96.0
22676;DHT22;12521;43.310;21.876;2022-10-23T13:01:30;21.8;96.0
22676;DHT22;12521;43.310;21.876;2022-10-23T13:06:11;21.8;96.0
22676;DHT22;12521;43.310;21.876;2022-10-23T13:10:49;21.8;96.0
22676;DHT22;12521;43.310;21.876;2022-10-23T13:15:39;21.8;96.0
22676;DHT22;12521;43.310;21.876;2022-10-23T13:20:28;21.8;96.0
22676;DHT22;12521;43.310;21.876;2022-10-23T13:25:31;21.8;96.0
22676;DHT22;12521;43.310;21.876;2022-10-23T13:30:34;21.8;96.0
22676;DHT22;12521;43.310;21.876;2022-10-23T13:35:23;21.9;96.0
22676;DHT22;12521;43.310;21.876;2022-10-23T13:40:20;21.9;96.0
22676;DHT22;12521;43.310;21.876;2022-10-23T13:45:00;21.8;96.0
22676;DHT22;12521;43.310;21.876;2022-10-23T13:49:36;21.8;96.0
22676;DHT22;12521;43.310;21.876;2022-10-23T13:54:21;21.8;96.0
22676;DHT22;12521;43.310;21.876;2022-10-23T13:59:03;21.8;96.0
22676;DHT22;12521;43.310;21.876;2022-10-23T14:03:40;21.8;96.0
22676;DHT22;12521;43.310;21.876;2022-10-23T14:08:18;21.8;96.0
22676;DHT22;12521;43.310;21.876;2022-10-23T14:12:55;21.7;96.0
22676;DHT22;12521;43.310;21.876;2022-10-23T14:17:35;21.7;96.0
22676;DHT22;12521;43.310;21.876;2022-10-23T14:22:13;21.6;96.0
22676;DHT22;12521;43.310;21.876;2022-10-23T14:26:50;21.6;96.0
22676;DHT22;12521;43.310;21.876;2022-10-23T14:31:27;21.5;96.0
22676;DHT22;12521;43.310;21.876;2022-10-23T14:36:07;21.5;96.0
22676;DHT22;12521;43.310;21.876;2022-10-23T14:40:46;21.5;96.0
22676;DHT22;12521;43.310;21.876;2022-10-23T14:45:23;21.4;96.0
22676;DHT22;12521;43.310;21.876;2022-10-23T14:50:00;21.4;96.0
22676;DHT22;12521;43.310;21.876;2022-10-23T14:54:37;21.2;96.0
22676;DHT22;12521;43.310;21.876;2022-10-23T14:59:14;21.2;96.0
22676;DHT22;12521;43.310;21.876;2022-10-23T15:03:50;21.0;96.0
22676;DHT22;12521;43.310;21.876;2022-10-23T15:08:27;21.0;96.0
22676;DHT22;12521;43.310;21.876;2022-10-23T15:13:03;20.9;96.0
22676;DHT22;12521;43.310;21.876;2022-10-23T15:17:40;20.9;96.0
22676;DHT22;12521;43.310;21.876;2022-10-23T15:22:17;20.6;96.0
22676;DHT22;12521;43.310;21.876;2022-10-23T15:26:54;20.6;96.0
22676;DHT22;12521;43.310;21.876;2022-10-23T15:31:57;20.4;96.0
22676;DHT22;12521;43.310;21.876;2022-10-23T15:36:35;20.4;96.0
22676;DHT22;12521;43.310;21.876;2022-10-23T15:41:27;20.0;96.0
22676;DHT22;12521;43.310;21.876;2022-10-23T15:46:06;20.0;96.0
22676;DHT22;12521;43.310;21.876;2022-10-23T15:50:43;20.0;96.0
22676;DHT22;12521;43.310;21.876;2022-10-23T15:55:19;19.5;96.0
22676;DHT22;12521;43.310;21.876;2022-10-23T15:59:56;19.5;96.0
22676;DHT22;12521;43.310;21.876;2022-10-23T16:04:33;19.2;96.0
22676;DHT22;12521;43.310;21.876;2022-10-23T16:09:10;19.2;96.0
22676;DHT22;12521;43.310;21.876;2022-10-23T16:13:49;18.8;96.0
22676;DHT22;12521;43.310;21.876;2022-10-23T16:18:25;18.8;96.0
22676;DHT22;12521;43.310;21.876;2022-10-23T16:23:02;18.5;96.0
22676;DHT22;12521;43.310;21.876;2022-10-23T16:27:38;18.5;96.0
22676;DHT22;12521;43.310;21.876;2022-10-23T16:32:15;18.1;96.0
22676;DHT22;12521;43.310;21.876;2022-10-23T16:36:52;18.1;96.0
22676;DHT22;12521;43.310;21.876;2022-10-23T16:41:29;17.8;96.0
22676;DHT22;12521;43.310;21.876;2022-10-23T16:46:15;17.8;96.0
22676;DHT22;12521;43.310;21.876;2022-10-23T16:50:57;17.8;96.0
22676;DHT22;12521;43.310;21.876;2022-10-23T16:55:40;17.6;96.0
22676;DHT22;12521;43.310;21.876;2022-10-23T17:00:18;17.6;96.0
22676;DHT22;12521;43.310;21.876;2022-10-23T17:04:54;17.4;96.0
22676;DHT22;12521;43.310;21.876;2022-10-23T17:09:32;17.4;96.0
22676;DHT22;12521;43.310;21.876;2022-10-23T17:14:17;17.1;96.0
22676;DHT22;12521;43.310;21.876;2022-10-23T17:18:56;17.1;96.0
22676;DHT22;12521;43.310;21.876;2022-10-23T17:23:35;16.9;96.0
22676;DHT22;12521;43.310;21.876;2022-10-23T17:28:12;16.9;96.0
22676;DHT22;12521;43.310;21.876;2022-10-23T17:32:48;16.7;96.0
22676;DHT22;12521;43.310;21.876;2022-10-23T17:37:25;16.7;96.0
22676;DHT22;12521;43.310;21.876;2022-10-23T17:42:02;16.6;96.0
22676;DHT22;12521;43.310;21.876;2022-10-23T17:46:39;16.6;96.0
22676;DHT22;12521;43.310;21.876;2022-10-23T17:51:22;16.5;96.0
22676;DHT22;12521;43.310;21.876;2022-10-23T17:56:05;16.5;96.0
22676;DHT22;12521;43.310;21.876;2022-10-23T18:00:45;16.5;96.0
22676;DHT22;12521;43.310;21.876;2022-10-23T18:05:21;16.4;96.0
22676;DHT22;12521;43.310;21.876;2022-10-23T18:09:58;16.4;96.0
22676;DHT22;12521;43.310;21.876;2022-10-23T18:14:36;16.3;96.0
22676;DHT22;12521;43.310;21.876;2022-10-23T18:19:16;16.3;96.0
22676;DHT22;12521;43.310;21.876;2022-10-23T18:23:53;16.2;96.0
22676;DHT22;12521;43.310;21.876;2022-10-23T18:28:32;16.2;96.0
22676;DHT22;12521;43.310;21.876;2022-10-23T18:33:08;16.0;96.0
22676;DHT22;12521;43.310;21.876;2022-10-23T18:37:45;16.0;96.0
22676;DHT22;12521;43.310;21.876;2022-10-23T18:42:21;15.8;96.0
22676;DHT22;12521;43.310;21.876;2022-10-23T18:46:59;15.8;96.0
22676;DHT22;12521;43.310;21.876;2022-10-23T18:51:37;15.7;96.0
22676;DHT22;12521;43.310;21.876;2022-10-23T18:56:22;15.7;96.0
22676;DHT22;12521;43.310;21.876;2022-10-23T19:01:00;15.7;96.0
22676;DHT22;12521;43.310;21.876;2022-10-23T19:05:41;15.6;96.0
22676;DHT22;12521;43.310;21.876;2022-10-23T19:10:25;15.6;96.0
22676;DHT22;12521;43.310;21.876;2022-10-23T19:15:09;15.4;96.0
22676;DHT22;12521;43.310;21.876;2022-10-23T19:19:58;15.4;96.0
22676;DHT22;12521;43.310;21.876;2022-10-23T19:24:56;15.2;96.0
22676;DHT22;12521;43.310;21.876;2022-10-23T19:29:47;15.2;96.0
22676;DHT22;12521;43.310;21.876;2022-10-23T19:34:27;15.1;96.0
22676;DHT22;12521;43.310;21.876;2022-10-23T19:39:04;15.1;96.0
22676;DHT22;12521;43.310;21.876;2022-10-23T19:43:41;15.0;96.0
22676;DHT22;12521;43.310;21.876;2022-10-23T19:48:18;15.0;96.0
22676;DHT22;12521;43.310;21.876;2022-10-23T19:52:55;15.0;96.0
22676;DHT22;12521;43.310;21.876;2022-10-23T19:57:33;15.0;96.0
22676;DHT22;12521;43.310;21.876;2022-10-23T20:02:11;14.9;96.0
22676;DHT22;12521;43.310;21.876;2022-10-23T20:06:48;14.9;96.0
22676;DHT22;12521;43.310;21.876;2022-10-23T20:11:31;14.8;96.0
22676;DHT22;12521;43.310;21.876;2022-10-23T20:16:07;14.8;96.0
22676;DHT22;12521;43.310;21.876;2022-10-23T20:20:44;14.8;96.0
22676;DHT22;12521;43.310;21.876;2022-10-23T20:25:20;14.6;96.0
22676;DHT22;12521;43.310;21.876;2022-10-23T20:29:57;14.6;96.0
22676;DHT22;12521;43.310;21.876;2022-10-23T20:34:34;14.5;96.0
22676;DHT22;12521;43.310;21.876;2022-10-23T20:39:18;14.5;96.0
22676;DHT22;12521;43.310;21.876;2022-10-23T20:43:56;14.4;96.0
22676;DHT22;12521;43.310;21.876;2022-10-23T20:48:36;14.4;96.0
22676;DHT22;12521;43.310;21.876;2022-10-23T20:53:16;14.4;96.0
22676;DHT22;12521;43.310;21.876;2022-10-23T20:57:53;14.4;96.0
22676;DHT22;12521;43.310;21.876;2022-10-23T21:02:29;14.3;96.0
22676;DHT22;12521;43.310;21.876;2022-10-23T21:07:05;14.3;96.0
22676;DHT22;12521;43.310;21.876;2022-10-23T21:11:42;14.2;96.0
22676;DHT22;12521;43.310;21.876;2022-10-23T21:16:23;14.2;96.0
22676;DHT22;12521;43.310;21.876;2022-10-23T21:21:05;14.2;96.0
22676;DHT22;12521;43.310;21.876;2022-10-23T21:25:42;14.1;96.0
22676;DHT22;12521;43.310;21.876;2022-10-23T21:30:19;14.1;96.0
22676;DHT22;12521;43.310;21.876;2022-10-23T21:34:56;14.0;96.0
22676;DHT22;12521;43.310;21.876;2022-10-23T21:39:32;14.0;96.0
22676;DHT22;12521;43.310;21.876;2022-10-23T21:44:12;14.0;96.0
22676;DHT22;12521;43.310;21.876;2022-10-23T21:48:49;14.0;96.0
22676;DHT22;12521;43.310;21.876;2022-10-23T21:53:28;14.0;96.0
22676;DHT22;12521;43.310;21.876;2022-10-23T21:58:07;14.0;96.0
22676;DHT22;12521;43.310;21.876;2022-10-23T22:02:44;14.0;96.0
22676;DHT22;12521;43.310;21.876;2022-10-23T22:07:20;14.0;96.0
22676;DHT22;12521;43.310;21.876;2022-10-23T22:11:58;13.9;96.0
22676;DHT22;12521;43.310;21.876;2022-10-23T22:16:36;13.9;96.0
22676;DHT22;12521;43.310;21.876;2022-10-23T22:21:19;13.9;96.0
22676;DHT22;12521;43.310;21.876;2022-10-23T22:26:05;13.8;96.0
22676;DHT22;12521;43.310;21.876;2022-10-23T22:31:00;13.8;96.0
22676;DHT22;12521;43.310;21.876;2022-10-23T22:35:38;13.7;96.0
22676;DHT22;12521;43.310;21.876;2022-10-23T22:40:15;13.7;96.0
22676;DHT22;12521;43.310;21.876;2022-10-23T22:44:52;13.6;96.0
22676;DHT22;12521;43.310;21.876;2022-10-23T22:49:29;13.6;96.0
22676;DHT22;12521;43.310;21.876;2022-10-23T22:54:06;13.5;96.0
22676;DHT22;12521;43.310;21.876;2022-10-23T22:58:45;13.5;96.0
22676;DHT22;12521;43.310;21.876;2022-10-23T23:03:22;13.4;96.0
22676;DHT22;12521;43.310;21.876;2022-10-23T23:07:59;13.4;96.0
22676;DHT22;12521;43.310;21.876;2022-10-23T23:12:36;13.3;96.0
22676;DHT22;12521;43.310;21.876;2022-10-23T23:17:12;13.3;96.0
22676;DHT22;12521;43.310;21.876;2022-10-23T23:21:49;13.2;96.0
22676;DHT22;12521;43.310;21.876;2022-10-23T23:26:26;13.2;96.0
22676;DHT22;12521;43.310;21.876;2022-10-23T23:31:10;13.2;96.0
22676;DHT22;12521;43.310;21.876;2022-10-23T23:35:58;13.1;96.0
22676;DHT22;12521;43.310;21.876;2022-10-23T23:40:35;13.1;96.0
22676;DHT22;12521;43.310;21.876;2022-10-23T23:45:13;13.0;96.0
22676;DHT22;12521;43.310;21.876;2022-10-23T23:49:50;13.0;96.0
22676;DHT22;12521;43.310;21.876;2022-10-23T23:54:26;12.9;96.0
22676;DHT22;12521;43.310;21.876;2022-10-23T23:59:04;12.9;96.0
